Star Mariella — V7KK3 — position and weather

sailwx.info

Track history (hours):
 
Tides and Currents Weather Stations Pressure Air Temp Water Temp Dewpoint Dewpoint Depression Visibility Wind Speed Wind Dir Waves Ship Positions

Star Mariella

Last reported at 2015-Feb-01 10:24 UTC. Time now 2015-Feb-01 11:46 UTC.
Position S 33°04' E 151°46'.

Length 229 m; draft 7.2 m.

Type: Ship. MMSI: 538002632.

Date/timePositionNaut miles runAvg speedWind from/ knotsBaromVisibWave heightAir tempDewpointWater temp
2015-Feb-01 10:24S 33°04' E 151°46'0 0.0
2015-Feb-01 03:12S 33°04' E 151°46'4 1.4
2015-Feb-01 00:30S 33°06' E 151°49'1111.3
2015-Jan-31 23:33S 33°04' E 152°02'1 1.0
2015-Jan-31 22:31S 33°05' E 152°03'1 0.7
2015-Jan-31 21:28S 33°05' E 152°04'1 0.7
2015-Jan-31 20:31S 33°05' E 152°04'1 0.7
2015-Jan-31 19:31S 33°05' E 152°05'1 0.6
2015-Jan-31 18:28S 33°05' E 152°06'0 0.5
2015-Jan-31 17:31S 33°05' E 152°07'1 0.7
2015-Jan-31 16:31S 33°06' E 152°07'1 0.7
2015-Jan-31 15:31S 33°06' E 152°08'5 5.4
2015-Jan-31 14:33S 33°10' E 152°04'10 0.7
2015-Jan-30 23:05S 33°17' E 151°54'2 3.4
2015-Jan-30 22:30S 33°15' E 151°55'3 2.8
2015-Jan-30 21:33S 33°12' E 151°54'3 3.3
2015-Jan-30 20:33S 33°09' E 151°53'3 2.6
2015-Jan-30 19:33S 33°07' E 151°54'1 0.5
2015-Jan-30 18:34S 33°07' E 151°53'4 3.8
2015-Jan-30 17:33S 33°11' E 151°52'3 0.4
2015-Jan-30 10:17S 33°11' E 151°49'1 1.9
2015-Jan-30 09:31S 33°11' E 151°50'4 3.6
2015-Jan-30 08:32S 33°14' E 151°51'3 3.0
2015-Jan-30 07:33S 33°17' E 151°52'4 3.0
2015-Jan-30 06:10S 33°21' E 151°54'10 1.1
2015-Jan-29 21:26S 33°16' E 152°04'4 4.1
2015-Jan-29 20:33S 33°12' E 152°05'3 3.4
2015-Jan-29 19:31S 33°09' E 152°07'3 3.1
2015-Jan-29 18:33S 33°07' E 152°08'4 3.5
2015-Jan-29 17:33S 33°03' E 152°10'2 2.3
2015-Jan-29 16:33S 33°02' E 152°12'3 2.8
2015-Jan-29 15:34S 33°03' E 152°09'3 2.6
2015-Jan-29 14:34S 33°01' E 152°07'9 9.3
2015-Jan-29 13:33S 33°04' E 151°56'11 0.5
2015-Jan-28 16:15S 33°07' E 151°44'0 0.0
2015-Jan-26 21:09S 33°07' E 151°44'0 0.0
2015-Jan-26 16:27S 33°07' E 151°44'0 0.0
2015-Jan-26 14:24S 33°07' E 151°44'0 0.0
2015-Jan-25 12:21S 33°07' E 151°44'0 0.1
2015-Jan-25 09:33S 33°08' E 151°44'0 0.0
2015-Jan-25 08:33S 33°08' E 151°44'18 1.8
2015-Jan-24 22:33S 33°24' E 151°53'8 8.0
2015-Jan-24 21:33S 33°32' E 151°56'5 1.3
2015-Jan-24 17:28S 33°37' E 151°56'17 2.1
2015-Jan-24 09:20S 33°46' E 151°39'2 0.5
2015-Jan-24 05:08S 33°46' E 151°36'1 1.5
2015-Jan-24 04:29S 33°46' E 151°37'2 1.5
2015-Jan-24 03:26S 33°44' E 151°38'1 1.4
2015-Jan-24 02:32S 33°43' E 151°39'2 1.3
2015-Jan-24 01:14S 33°42' E 151°40'14 1.1
2015-Jan-23 12:06S 33°29' E 151°47'10 2.6
2015-Jan-23 08:20S 33°20' E 151°51'2 2.7
2015-Jan-23 07:33S 33°18' E 151°52'3 2.7
2015-Jan-23 06:33S 33°15' E 151°53'2 2.5
2015-Jan-23 05:34S 33°13' E 151°55'2 2.3
2015-Jan-23 04:32S 33°11' E 151°56'2 2.1
2015-Jan-23 03:33S 33°09' E 151°58'2 1.9
2015-Jan-23 02:26S 33°08' E 151°59'2 1.7
2015-Jan-23 01:31S 33°06' E 152°00'2 1.6
2015-Jan-23 00:31S 33°05' E 152°02'1 1.3
2015-Jan-22 23:31S 33°04' E 152°03'1 1.2
2015-Jan-22 22:31S 33°03' E 152°04'1 1.2
2015-Jan-22 21:31S 33°02' E 152°04'1 1.4
2015-Jan-22 20:31S 33°02' E 152°06'2 1.7
2015-Jan-22 19:31S 33°03' E 152°08'1 1.5
2015-Jan-22 18:31S 33°03' E 152°10'2 1.7
2015-Jan-22 17:31S 33°04' E 152°11'1 1.4
2015-Jan-22 16:31S 33°04' E 152°13'1 1.1
2015-Jan-22 15:31S 33°04' E 152°14'1 1.2
2015-Jan-22 14:31S 33°05' E 152°15'1 0.9
2015-Jan-22 13:33S 33°06' E 152°16'9 9.3
2015-Jan-22 12:33S 33°12' E 152°08'10 9.8
2015-Jan-22 11:34S 33°17' E 151°58'  
Track history (hours):
 
Tides and Currents Weather Stations Pressure Air Temp Water Temp Dewpoint Dewpoint Depression Visibility Wind Speed Wind Dir Waves Ship Positions

Star Mariella

Last reported at 2015-Feb-01 10:24 UTC. Time now 2015-Feb-01 11:46 UTC.
Position S 33°04' E 151°46'.

Length 229 m; draft 7.2 m.

Type: Ship. MMSI: 538002632.

Date/timePositionNaut miles runAvg speedWind from/ knotsBaromVisibWave heightAir tempDewpointWater temp
2015-Feb-01 10:24S 33°04' E 151°46'0 0.0
2015-Feb-01 03:12S 33°04' E 151°46'4 1.4
2015-Feb-01 00:30S 33°06' E 151°49'1111.3
2015-Jan-31 23:33S 33°04' E 152°02'1 1.0
2015-Jan-31 22:31S 33°05' E 152°03'1 0.7
2015-Jan-31 21:28S 33°05' E 152°04'1 0.7
2015-Jan-31 20:31S 33°05' E 152°04'1 0.7
2015-Jan-31 19:31S 33°05' E 152°05'1 0.6
2015-Jan-31 18:28S 33°05' E 152°06'0 0.5
2015-Jan-31 17:31S 33°05' E 152°07'1 0.7
2015-Jan-31 16:31S 33°06' E 152°07'1 0.7
2015-Jan-31 15:31S 33°06' E 152°08'5 5.4
2015-Jan-31 14:33S 33°10' E 152°04'10 0.7
2015-Jan-30 23:05S 33°17' E 151°54'2 3.4
2015-Jan-30 22:30S 33°15' E 151°55'3 2.8
2015-Jan-30 21:33S 33°12' E 151°54'3 3.3
2015-Jan-30 20:33S 33°09' E 151°53'3 2.6
2015-Jan-30 19:33S 33°07' E 151°54'1 0.5
2015-Jan-30 18:34S 33°07' E 151°53'4 3.8
2015-Jan-30 17:33S 33°11' E 151°52'3 0.4
2015-Jan-30 10:17S 33°11' E 151°49'1 1.9
2015-Jan-30 09:31S 33°11' E 151°50'4 3.6
2015-Jan-30 08:32S 33°14' E 151°51'3 3.0
2015-Jan-30 07:33S 33°17' E 151°52'4 3.0
2015-Jan-30 06:10S 33°21' E 151°54'10 1.1
2015-Jan-29 21:26S 33°16' E 152°04'4 4.1
2015-Jan-29 20:33S 33°12' E 152°05'3 3.4
2015-Jan-29 19:31S 33°09' E 152°07'3 3.1
2015-Jan-29 18:33S 33°07' E 152°08'4 3.5
2015-Jan-29 17:33S 33°03' E 152°10'2 2.3
2015-Jan-29 16:33S 33°02' E 152°12'3 2.8
2015-Jan-29 15:34S 33°03' E 152°09'3 2.6
2015-Jan-29 14:34S 33°01' E 152°07'9 9.3
2015-Jan-29 13:33S 33°04' E 151°56'11 0.5
2015-Jan-28 16:15S 33°07' E 151°44'0 0.0
2015-Jan-26 21:09S 33°07' E 151°44'0 0.0
2015-Jan-26 16:27S 33°07' E 151°44'0 0.0
2015-Jan-26 14:24S 33°07' E 151°44'0 0.0
2015-Jan-25 12:21S 33°07' E 151°44'0 0.1
2015-Jan-25 09:33S 33°08' E 151°44'0 0.0
2015-Jan-25 08:33S 33°08' E 151°44'18 1.8
2015-Jan-24 22:33S 33°24' E 151°53'8 8.0
2015-Jan-24 21:33S 33°32' E 151°56'5 1.3
2015-Jan-24 17:28S 33°37' E 151°56'17 2.1
2015-Jan-24 09:20S 33°46' E 151°39'2 0.5
2015-Jan-24 05:08S 33°46' E 151°36'1 1.5
2015-Jan-24 04:29S 33°46' E 151°37'2 1.5
2015-Jan-24 03:26S 33°44' E 151°38'1 1.4
2015-Jan-24 02:32S 33°43' E 151°39'2 1.3
2015-Jan-24 01:14S 33°42' E 151°40'14 1.1
2015-Jan-23 12:06S 33°29' E 151°47'10 2.6
2015-Jan-23 08:20S 33°20' E 151°51'2 2.7
2015-Jan-23 07:33S 33°18' E 151°52'3 2.7
2015-Jan-23 06:33S 33°15' E 151°53'2 2.5
2015-Jan-23 05:34S 33°13' E 151°55'2 2.3
2015-Jan-23 04:32S 33°11' E 151°56'2 2.1
2015-Jan-23 03:33S 33°09' E 151°58'2 1.9
2015-Jan-23 02:26S 33°08' E 151°59'2 1.7
2015-Jan-23 01:31S 33°06' E 152°00'2 1.6
2015-Jan-23 00:31S 33°05' E 152°02'1 1.3
2015-Jan-22 23:31S 33°04' E 152°03'1 1.2
2015-Jan-22 22:31S 33°03' E 152°04'1 1.2
2015-Jan-22 21:31S 33°02' E 152°04'1 1.4
2015-Jan-22 20:31S 33°02' E 152°06'2 1.7
2015-Jan-22 19:31S 33°03' E 152°08'1 1.5
2015-Jan-22 18:31S 33°03' E 152°10'2 1.7
2015-Jan-22 17:31S 33°04' E 152°11'1 1.4
2015-Jan-22 16:31S 33°04' E 152°13'1 1.1
2015-Jan-22 15:31S 33°04' E 152°14'1 1.2
2015-Jan-22 14:31S 33°05' E 152°15'1 0.9
2015-Jan-22 13:33S 33°06' E 152°16'9 9.3
2015-Jan-22 12:33S 33°12' E 152°08'10 9.8
2015-Jan-22 11:34S 33°17' E 151°58'  

Dump ship's entire track history